Fairview Valley, Nevada Weather observations

Data are for observation ending at time listed.
 Day   Time    Ave.   Ave.  Ave.  Vector   Max.   Stn.    Total    Solar   Ave.   Ave.    #1       #2
  of    of     Air    Rel.  Wind   Wind    Wind   Baro.  Precip.   Rad.    Soil   Vis.   Cloud   Cloud
Year   Day     Temp.  Hum.  Speed  Dir.    Gust   Pres.                    Temp.          Ceil    Ceil
2014   (PST)    F      %     mph   deg.    mph     mb.     in.     W/m2     F     (km)   k ft.   k ft.
------------------------------------------------------------------------------------------------------
 240    0:00  999.0   999  999.0   999    999.0    999    999.00     999   999.0   999.0  999.0  999.0
 240    0:10  999.0   999  999.0   999    999.0    999    999.00     999   999.0   999.0  999.0  999.0
 240    0:20  999.0   999  999.0   999    999.0    999    999.00     999   999.0   999.0  999.0  999.0
 240    0:30  999.0   999  999.0   999    999.0    999    999.00     999   999.0   999.0  999.0  999.0
 240    0:40  999.0   999  999.0   999    999.0    999    999.00     999   999.0   999.0  999.0  999.0
 240    0:50  999.0   999  999.0   999    999.0    999    999.00     999   999.0   999.0  999.0  999.0
 240    1:00  999.0   999  999.0   999    999.0    999    999.00     999   999.0   999.0  999.0  999.0
 240    1:10  999.0   999  999.0   999    999.0    999    999.00     999   999.0   999.0  999.0  999.0
 240    1:20  999.0   999  999.0   999    999.0    999    999.00     999   999.0   999.0  999.0  999.0
 240    1:30  999.0   999  999.0   999    999.0    999    999.00     999   999.0   999.0  999.0  999.0
 240    1:40  999.0   999  999.0   999    999.0    999    999.00     999   999.0   999.0  999.0  999.0
 240    1:50  999.0   999  999.0   999    999.0    999    999.00     999   999.0   999.0  999.0  999.0
 240    2:00  999.0   999  999.0   999    999.0    999    999.00     999   999.0   999.0  999.0  999.0
 240    2:10  999.0   999  999.0   999    999.0    999    999.00     999   999.0   999.0  999.0  999.0
 240    2:20  999.0   999  999.0   999    999.0    999    999.00     999   999.0   999.0  999.0  999.0
 240    2:30  999.0   999  999.0   999    999.0    999    999.00     999   999.0   999.0  999.0  999.0
 240    2:40  999.0   999  999.0   999    999.0    999    999.00     999   999.0   999.0  999.0  999.0
 240    2:50  999.0   999  999.0   999    999.0    999    999.00     999   999.0   999.0  999.0  999.0
 240    3:00  999.0   999  999.0   999    999.0    999    999.00     999   999.0   999.0  999.0  999.0
 240    3:10  999.0   999  999.0   999    999.0    999    999.00     999   999.0   999.0  999.0  999.0
 240    3:20  999.0   999  999.0   999    999.0    999    999.00     999   999.0   999.0  999.0  999.0
 240    3:30  999.0   999  999.0   999    999.0    999    999.00     999   999.0   999.0  999.0  999.0
 240    3:40  999.0   999  999.0   999    999.0    999    999.00     999   999.0   999.0  999.0  999.0
 240    3:50  999.0   999  999.0   999    999.0    999    999.00     999   999.0   999.0  999.0  999.0
 240    4:00  999.0   999  999.0   999    999.0    999    999.00     999   999.0   999.0  999.0  999.0
 240    4:10  999.0   999  999.0   999    999.0    999    999.00     999   999.0   999.0  999.0  999.0
 240    4:20  999.0   999  999.0   999    999.0    999    999.00     999   999.0   999.0  999.0  999.0
 240    4:30  999.0   999  999.0   999    999.0    999    999.00     999   999.0   999.0  999.0  999.0
 240    4:40  999.0   999  999.0   999    999.0    999    999.00     999   999.0   999.0  999.0  999.0
 240    4:50  999.0   999  999.0   999    999.0    999    999.00     999   999.0   999.0  999.0  999.0
 240    5:00  999.0   999  999.0   999    999.0    999    999.00     999   999.0   999.0  999.0  999.0
 240    5:10  999.0   999  999.0   999    999.0    999    999.00     999   999.0   999.0  999.0  999.0
 240    5:20  999.0   999  999.0   999    999.0    999    999.00     999   999.0   999.0  999.0  999.0
 240    5:30  999.0   999  999.0   999    999.0    999    999.00     999   999.0   999.0  999.0  999.0
 240    5:40  999.0   999  999.0   999    999.0    999    999.00     999   999.0   999.0  999.0  999.0
 240    5:50   55.5    30    3.1   312      4.8    876     0.00      45    76.7   999.0    0.0  999.0
 240    6:00   56.7    29    2.1   308      4.9    876     0.00      79    76.6   999.0    0.0  999.0
 240    6:10   58.4    27    0.3   309      2.0    876     0.00     118    76.4   999.0    0.0  999.0
 240    6:20   60.8    27    0.4   300      2.1    876     0.00     151    76.2   999.0    0.0  999.0
 240    6:30   61.2    26    1.8   192      3.4    876     0.00     182    76.1   999.0    0.0  999.0
 240    6:40   61.2    27    3.4   162      4.5    876     0.00     214    76.0   999.0    0.0  999.0
 240    6:50   62.7    26    3.5   166      4.5    876     0.00     247    75.9   999.0    0.0  999.0
 240    7:00   64.3    25    3.8   184      4.7    876     0.00     281    75.7   999.0    0.0  999.0
 240    7:10   65.8    24    3.9   218      5.4    876     0.00     314    75.6   999.0    0.0  999.0
 240    7:20   66.7    23    3.4   211      4.8    876     0.00     348    75.5   999.0    0.0  999.0
 240    7:30   68.0    22    2.7   216      4.3    876     0.00     381    75.4   999.0    0.0  999.0
 240    7:40   68.4    22    3.4   225      4.6    876     0.00     415    75.2   999.0    0.0  999.0
 240    7:50   69.3    21    3.4   213      4.8    876     0.00     447    75.1   999.0    0.0  999.0
 240    8:00   71.0    20    3.3   206      4.5    876     0.00     480    75.0   999.0    0.0  999.0
 240    8:10   72.5    19    2.9   218      4.0    876     0.00     511    74.9   999.0    0.0  999.0
 240    8:20   74.3    18    3.4   215      5.6    876     0.00     542    74.8   999.0    0.0  999.0
 240    8:30   76.0    17    3.0   219      5.0    876     0.00     571    74.8   999.0    0.0  999.0
 240    8:40   77.6    16    2.1   216      4.0    876     0.00     600    74.7   999.0    0.0  999.0
 240    8:50   79.1    16    1.7   206      4.2    876     0.00     629    74.7   999.0    0.0  999.0
 240    9:00   80.3    15    2.2   230      4.2    876     0.00     656    74.6   999.0    0.0  999.0
 240    9:10   81.2    15    2.2   217      4.7    876     0.00     683    74.6   999.0    0.0  999.0
 240    9:20   82.5    14    3.3   223      7.4    876     0.00     708    74.6   999.0    0.0  999.0
 240    9:30   82.9    14    4.1   264      8.0    876     0.00     733    74.5   999.0    0.0  999.0
 240    9:40   83.6    14    5.0   261      8.7    876     0.00     756    74.5   999.0    0.0  999.0
 240    9:50   83.9    14    4.6   252      9.4    876     0.00     778    74.5   999.0    0.0  999.0
 240   10:00   85.0    14    5.1   241      9.2    876     0.00     799    74.4   999.0    0.0  999.0
 240   10:10   85.4    14    4.0   260      8.7    876     0.00     818    74.4   999.0    0.0  999.0
 240   10:20   85.8    14    5.2   266      9.9    875     0.00     835    74.4   999.0    0.0  999.0
 240   10:30   87.0    14    4.4   290     10.9    875     0.00     850    74.4   999.0    0.0  999.0
 240   10:40   87.7    13    5.9   256      9.3    875     0.00     866    74.4   999.0    0.0  999.0
 240   10:50   87.7    13    6.7   258     11.7    875     0.00     879    74.4   999.0    0.0  999.0
 240   11:00   87.9    13    6.2   270     12.5    875     0.00     891    74.4   999.0    0.0  999.0
 240   11:10   88.3    12    6.1   324     10.3    875     0.00     900    74.5   999.0    0.0  999.0
 240   11:20   88.9    12    5.7   301     11.2    875     0.00     912    74.6   999.0    0.0  999.0
 240   11:30   89.1    12    4.8   300     11.2    875     0.00     919    74.6   999.0    0.0  999.0
 240   11:40   89.0    12    5.3   319      9.9    874     0.00     923    74.7   999.0    0.0  999.0
 240   11:50   89.5    11    5.2   272     11.2    874     0.00     929    74.7   999.0    0.0  999.0
 240   12:00   89.8    11    5.4   251     13.6    874     0.00     931    74.8   999.0    0.0  999.0
 240   12:10   91.7    10    7.2   236     15.2    874     0.00     931    74.8   999.0    0.0  999.0
 240   12:20   90.8    10    8.8   256     12.3    874     0.00     931    75.0   999.0    0.0  999.0
 240   12:30   90.9    10    3.3   273      8.6    874     0.00     908    75.1   999.0    0.0  999.0
 240   12:40   91.2     9    5.3   306     11.0    873     0.00     919    75.3   999.0    0.0  999.0
 240   12:50   91.5     9    5.8   296     14.2    873     0.00     912    75.4   999.0    0.0  999.0
 240   13:00   91.5     9    7.6   260     12.5    873     0.00     903    75.5   999.0    0.0  999.0
 240   13:10   91.3     9    7.0   274     14.5    873     0.00     891    75.7   999.0    0.0  999.0
 240   13:20   90.8     9    3.6   330      9.4    873     0.00     879    75.9   999.0    0.0  999.0
 240   13:30   91.3     9    4.0    15      8.8    873     0.00     865    76.1   999.0    0.0  999.0
 240   13:40   91.5     9    5.5    68     11.9    873     0.00     850    76.4   999.0    0.0  999.0
 240   13:50   92.5     9    2.2    60      6.1    872     0.00     832    76.6   999.0    0.0  999.0
 240   14:00   93.5     8    6.9   302     15.6    872     0.00     813    76.8   999.0    0.0  999.0
 240   14:10   92.7     9    9.0   282     15.3    872     0.00     794    77.1   999.0    0.0  999.0
 240   14:20   93.3     9    7.0   258     12.4    872     0.00     772    77.4   999.0    0.0  999.0
 240   14:30   93.3     9    9.2   278     16.2    872     0.00     750    77.6   999.0    0.0  999.0
 240   14:40   93.3     9    4.9   235      9.5    872     0.00     725    77.9   999.0    0.0  999.0
 240   14:50   93.8     9    6.9   246     12.9    872     0.00     699    78.1   999.0    0.0  999.0
 240   15:00   93.0     9    8.3   279     15.4    872     0.00     671    78.4   999.0    0.0  999.0
 240   15:10   93.3     9    6.5   257     14.5    872     0.00     644    78.7   999.0    0.0  999.0
 240   15:20   93.3     9    4.7   258      9.9    872     0.00     615    79.0   999.0    0.0  999.0
 240   15:30   93.4     8    3.1   291      9.0    871     0.00     583    79.3   999.0    0.0  999.0
 240   15:40   93.3     9    8.1   275     13.2    871     0.00     553    79.6   999.0    0.0  999.0
 240   15:50   93.1     9    5.1   268     10.4    871     0.00     522    79.8   999.0    0.0  999.0
 240   16:00   93.7     9    8.3   329     13.4    871     0.00     491    80.1   999.0    0.0  999.0
 240   16:10   92.9     9    5.5   292     14.0    871     0.00     461    80.4   999.0    0.0  999.0
 240   16:20   92.9     9    6.5   324     13.7    871     0.00     435    80.7   999.0    0.0  999.0
 240   16:30   93.1     9    5.6   272     13.2    871     0.00     382    81.0   999.0    0.0  999.0
 240   16:40   92.9     9    4.4   301      8.1    871     0.00     334    81.3   999.0    0.0  999.0
 240   16:50   93.0     9    5.1   328      9.7    871     0.00     335    81.6   999.0    0.0  999.0
 240   17:00   92.9     9    5.8   350     10.2    871     0.00     291    81.9   999.0    0.0  999.0
 240   17:10   92.9     9    7.0   309     11.8    871     0.00     254    82.1   999.0    0.0  999.0
 240   17:20   92.2     9   10.4   307     14.5    871     0.00     221    82.4   999.0    0.0  999.0
 240   17:30   91.8     9    8.9   295     12.1    871     0.00     189    82.7   999.0    0.0  999.0
 240   17:40   91.2     9    9.2   305     12.7    871     0.00     145    82.9   999.0    0.0  999.0
 240   17:50   90.7    10    8.9   317     11.8    871     0.00      96    83.2   999.0    0.0  999.0
 240   18:00   89.7    10    6.6   309      8.8    871     0.00      49    83.4   999.0    0.0  999.0
 240   18:10   89.5    10    7.2   311     10.5    871     0.00      52    83.6   999.0    0.0  999.0
 240   18:20   88.3    10    9.0   312     11.5    871     0.00      21    83.8   999.0    0.0  999.0
 240   18:30   86.5    10    8.6   312     10.4    871     0.00       7    84.0   999.0    0.0  999.0
 240   18:40   84.8    11    8.9   312     10.0    871     0.00       3    84.1   999.0    0.0  999.0
 240   18:50   83.3    11    9.0   311      9.9    871     0.00       1    84.3   999.0    0.0  999.0
 240   19:00   82.0    12    9.7   312     10.8    871     0.00       0    84.5   999.0    0.0  999.0
 240   19:10   81.4    12    9.0   313     10.4    871     0.00       0    84.5   999.0    0.0  999.0
 240   19:20   80.1    12    7.2   320      8.5    871     0.00       0    84.5   999.0    0.0  999.0
 240   19:30   79.5    12    4.8    37      7.6    871     0.00       0    84.7   999.0    0.0  999.0
 240   19:40   80.0    12    4.6    23      5.6    871     0.00       0    84.7   240.0  1750.0  999.0
 240   19:50   79.5    12    5.1    29      7.5    871     0.00       0    84.7   999.0    0.0  999.0
 240   20:00   78.9    13    5.6    29      7.0    871     0.00       0    84.8   999.0    0.0  999.0
 240   20:10   78.1    13    3.6    43      4.8    871     0.00       0    84.8   -6154.0  240.0  999.0
 240   20:20  999.0   999  999.0   999    999.0    999    999.00     999   999.0   999.0  999.0  999.0
 240   20:30  999.0   999  999.0   999    999.0    999    999.00     999   999.0   999.0  999.0  999.0
 240   20:40  999.0   999  999.0   999    999.0    999    999.00     999   999.0   999.0  999.0  999.0
 240   20:50   77.1    13    0.9    79      2.1    872     0.00       0    84.7   999.0    0.0  999.0
 240   21:00   77.6    13    0.2    76      0.8    872    205.80       0   464.0     0.0    5.1  999.0

Return to Fairview Valley graphs page.


Western Regional Climate Center,wrcc@dri.edu